sensor_id;sensor_type;location;lat;lon;timestamp;pressure;altitude;pressure_sealevel;temperature;humidity
75886;BME280;64561;44.018;10.144;2023-11-21T00:00:20;100878.97;;;15.72;96.56
75886;BME280;64561;44.018;10.144;2023-11-21T00:02:47;100875.53;;;15.71;97.07
75886;BME280;64561;44.018;10.144;2023-11-21T00:05:14;100875.53;;;15.68;97.52
75886;BME280;64561;44.018;10.144;2023-11-21T00:07:44;100871.16;;;15.61;100.00
75886;BME280;64561;44.018;10.144;2023-11-21T00:10:12;100865.13;;;15.50;100.00
75886;BME280;64561;44.018;10.144;2023-11-21T00:12:42;100852.22;;;15.47;100.00
75886;BME280;64561;44.018;10.144;2023-11-21T00:15:09;100850.47;;;15.44;100.00
75886;BME280;64561;44.018;10.144;2023-11-21T00:17:40;100861.63;;;15.45;100.00
75886;BME280;64561;44.018;10.144;2023-11-21T00:20:09;100854.75;;;15.42;100.00
75886;BME280;64561;44.018;10.144;2023-11-21T00:22:40;100841.03;;;15.48;100.00
75886;BME280;64561;44.018;10.144;2023-11-21T00:25:08;100837.56;;;15.49;100.00
75886;BME280;64561;44.018;10.144;2023-11-21T00:27:36;100831.56;;;15.48;100.00
75886;BME280;64561;44.018;10.144;2023-11-21T00:30:04;100831.56;;;15.45;100.00
75886;BME280;64561;44.018;10.144;2023-11-21T00:32:35;100831.53;;;15.39;100.00
75886;BME280;64561;44.018;10.144;2023-11-21T00:35:04;100834.13;;;15.41;100.00
75886;BME280;64561;44.018;10.144;2023-11-21T00:37:31;100826.41;;;15.41;100.00
75886;BME280;64561;44.018;10.144;2023-11-21T00:39:59;100828.13;;;15.46;100.00
75886;BME280;64561;44.018;10.144;2023-11-21T00:42:29;100833.28;;;15.46;100.00
75886;BME280;64561;44.018;10.144;2023-11-21T00:44:56;100830.69;;;15.42;100.00
75886;BME280;64561;44.018;10.144;2023-11-21T00:47:23;100830.69;;;15.42;100.00
75886;BME280;64561;44.018;10.144;2023-11-21T00:49:51;100827.25;;;15.41;100.00
75886;BME280;64561;44.018;10.144;2023-11-21T00:52:18;100822.06;;;15.40;100.00
75886;BME280;64561;44.018;10.144;2023-11-21T00:54:45;100818.66;;;15.41;100.00
75886;BME280;64561;44.018;10.144;2023-11-21T00:57:12;100812.63;;;15.42;100.00
75886;BME280;64561;44.018;10.144;2023-11-21T00:59:39;100806.63;;;15.41;100.00
75886;BME280;64561;44.018;10.144;2023-11-21T01:02:06;100811.75;;;15.35;100.00
75886;BME280;64561;44.018;10.144;2023-11-21T01:04:37;100805.72;;;15.31;100.00
75886;BME280;64561;44.018;10.144;2023-11-21T01:07:04;100806.53;;;15.24;100.00
75886;BME280;64561;44.018;10.144;2023-11-21T01:09:32;100808.28;;;15.22;100.00
75886;BME280;64561;44.018;10.144;2023-11-21T01:11:59;100803.09;;;15.21;100.00
75886;BME280;64561;44.018;10.144;2023-11-21T01:14:27;100800.50;;;15.21;100.00
75886;BME280;64561;44.018;10.144;2023-11-21T01:16:54;100804.78;;;15.19;100.00
75886;BME280;64561;44.018;10.144;2023-11-21T01:19:21;100796.19;;;15.12;100.00
75886;BME280;64561;44.018;10.144;2023-11-21T01:21:49;100797.88;;;15.08;100.00
75886;BME280;64561;44.018;10.144;2023-11-21T01:24:16;100785.88;;;15.07;100.00
75886;BME280;64561;44.018;10.144;2023-11-21T01:26:43;100778.97;;;15.05;100.00
75886;BME280;64561;44.018;10.144;2023-11-21T01:29:12;100778.16;;;15.11;100.00
75886;BME280;64561;44.018;10.144;2023-11-21T01:31:39;100767.00;;;15.18;100.00
75886;BME280;64561;44.018;10.144;2023-11-21T01:34:07;100768.72;;;15.19;100.00
75886;BME280;64561;44.018;10.144;2023-11-21T01:36:34;100775.59;;;15.17;100.00
75886;BME280;64561;44.018;10.144;2023-11-21T01:39:02;100788.47;;;15.17;100.00
75886;BME280;64561;44.018;10.144;2023-11-21T01:41:34;100785.91;;;15.17;100.00
75886;BME280;64561;44.018;10.144;2023-11-21T01:44:02;100775.59;;;15.17;100.00
75886;BME280;64561;44.018;10.144;2023-11-21T01:46:29;100777.28;;;15.16;100.00
75886;BME280;64561;44.018;10.144;2023-11-21T01:48:57;100778.16;;;15.21;100.00
75886;BME280;64561;44.018;10.144;2023-11-21T01:51:24;100763.56;;;15.25;100.00
75886;BME280;64561;44.018;10.144;2023-11-21T01:53:55;100761.03;;;15.29;100.00
75886;BME280;64561;44.018;10.144;2023-11-21T01:56:22;100764.47;;;15.31;100.00
75886;BME280;64561;44.018;10.144;2023-11-21T01:58:50;100749.84;;;15.33;100.00
75886;BME280;64561;44.018;10.144;2023-11-21T02:01:17;100750.72;;;15.34;100.00
75886;BME280;64561;44.018;10.144;2023-11-21T02:03:46;100740.41;;;15.32;100.00
75886;BME280;64561;44.018;10.144;2023-11-21T02:06:13;100739.56;;;15.32;100.00
75886;BME280;64561;44.018;10.144;2023-11-21T02:08:43;100725.78;;;15.30;100.00
75886;BME280;64561;44.018;10.144;2023-11-21T02:11:11;100722.38;;;15.32;100.00
75886;BME280;64561;44.018;10.144;2023-11-21T02:13:40;100721.50;;;15.32;100.00
75886;BME280;64561;44.018;10.144;2023-11-21T02:16:11;100712.91;;;15.33;100.00
75886;BME280;64561;44.018;10.144;2023-11-21T02:18:40;100721.53;;;15.46;97.73
75886;BME280;64561;44.018;10.144;2023-11-21T02:21:09;100725.84;;;15.44;98.18
75886;BME280;64561;44.018;10.144;2023-11-21T02:23:37;100727.56;;;15.46;99.78
75886;BME280;64561;44.018;10.144;2023-11-21T02:26:05;100727.53;;;15.40;100.00
75886;BME280;64561;44.018;10.144;2023-11-21T02:28:32;100716.34;;;15.35;100.00
75886;BME280;64561;44.018;10.144;2023-11-21T02:31:00;100705.19;;;15.31;100.00
75886;BME280;64561;44.018;10.144;2023-11-21T02:33:27;100698.28;;;15.30;100.00
75886;BME280;64561;44.018;10.144;2023-11-21T02:35:54;100700.88;;;15.29;100.00
75886;BME280;64561;44.018;10.144;2023-11-21T02:38:22;100687.09;;;15.27;100.00
75886;BME280;64561;44.018;10.144;2023-11-21T02:40:49;100689.69;;;15.27;100.00
75886;BME280;64561;44.018;10.144;2023-11-21T02:43:16;100692.25;;;15.27;100.00
75886;BME280;64561;44.018;10.144;2023-11-21T02:45:45;100695.69;;;15.24;100.00
75886;BME280;64561;44.018;10.144;2023-11-21T02:48:12;100692.25;;;15.24;100.00
75886;BME280;64561;44.018;10.144;2023-11-21T02:50:39;100696.53;;;15.25;100.00
75886;BME280;64561;44.018;10.144;2023-11-21T02:53:07;100683.66;;;15.22;100.00
75886;BME280;64561;44.018;10.144;2023-11-21T02:55:35;100688.81;;;15.17;100.00
75886;BME280;64561;44.018;10.144;2023-11-21T02:58:02;100691.38;;;15.17;100.00
75886;BME280;64561;44.018;10.144;2023-11-21T03:00:34;100681.06;;;15.11;100.00
75886;BME280;64561;44.018;10.144;2023-11-21T03:03:01;100678.47;;;15.16;100.00
75886;BME280;64561;44.018;10.144;2023-11-21T03:05:28;100672.47;;;15.07;100.00
75886;BME280;64561;44.018;10.144;2023-11-21T03:07:56;100666.41;;;14.98;100.00
75886;BME280;64561;44.018;10.144;2023-11-21T03:10:25;100664.69;;;14.95;100.00
75886;BME280;64561;44.018;10.144;2023-11-21T03:12:52;100661.25;;;14.90;100.00
75886;BME280;64561;44.018;10.144;2023-11-21T03:15:19;100662.09;;;14.94;100.00
75886;BME280;64561;44.018;10.144;2023-11-21T03:17:47;100665.53;;;14.94;100.00
75886;BME280;64561;44.018;10.144;2023-11-21T03:20:16;100665.53;;;14.94;100.00
75886;BME280;64561;44.018;10.144;2023-11-21T03:22:43;100653.50;;;14.95;100.00
75886;BME280;64561;44.018;10.144;2023-11-21T03:25:12;100649.22;;;14.97;100.00
75886;BME280;64561;44.018;10.144;2023-11-21T03:27:40;100639.78;;;15.00;100.00
75886;BME280;64561;44.018;10.144;2023-11-21T03:30:08;100641.50;;;15.03;100.00
75886;BME280;64561;44.018;10.144;2023-11-21T03:32:35;100625.19;;;15.02;100.00
75886;BME280;64561;44.018;10.144;2023-11-21T03:35:03;100623.50;;;15.04;100.00
75886;BME280;64561;44.018;10.144;2023-11-21T03:37:30;100606.31;;;15.05;100.00
75886;BME280;64561;44.018;10.144;2023-11-21T03:39:58;100594.28;;;15.08;100.00
75886;BME280;64561;44.018;10.144;2023-11-21T03:42:25;100590.00;;;15.11;100.00
75886;BME280;64561;44.018;10.144;2023-11-21T03:44:54;100587.44;;;15.14;100.00
75886;BME280;64561;44.018;10.144;2023-11-21T03:47:21;100577.09;;;15.21;100.00
75886;BME280;64561;44.018;10.144;2023-11-21T03:49:48;100571.94;;;15.21;100.00
75886;BME280;64561;44.018;10.144;2023-11-21T03:52:16;100569.41;;;15.32;98.26
75886;BME280;64561;44.018;10.144;2023-11-21T03:54:43;100577.97;;;15.31;97.13
75886;BME280;64561;44.018;10.144;2023-11-21T03:57:11;100594.31;;;15.33;96.94
75886;BME280;64561;44.018;10.144;2023-11-21T03:59:43;100605.50;;;15.32;97.02
75886;BME280;64561;44.018;10.144;2023-11-21T04:02:10;100617.50;;;15.30;97.94
75886;BME280;64561;44.018;10.144;2023-11-21T04:04:37;100620.09;;;15.30;98.32
75886;BME280;64561;44.018;10.144;2023-11-21T04:07:05;100610.63;;;15.27;97.59
75886;BME280;64561;44.018;10.144;2023-11-21T04:09:32;100614.06;;;15.28;96.66
75886;BME280;64561;44.018;10.144;2023-11-21T04:11:59;100614.06;;;15.26;96.88
75886;BME280;64561;44.018;10.144;2023-11-21T04:14:27;100618.38;;;15.26;96.39
75886;BME280;64561;44.018;10.144;2023-11-21T04:16:54;100611.50;;;15.26;96.45
75886;BME280;64561;44.018;10.144;2023-11-21T04:19:21;100612.38;;;15.28;97.07
75886;BME280;64561;44.018;10.144;2023-11-21T04:21:49;100608.06;;;15.29;96.57
75886;BME280;64561;44.018;10.144;2023-11-21T04:24:16;100596.00;;;15.37;94.65
75886;BME280;64561;44.018;10.144;2023-11-21T04:26:44;100584.84;;;15.40;94.04
75886;BME280;64561;44.018;10.144;2023-11-21T04:29:11;100577.13;;;15.41;93.64
75886;BME280;64561;44.018;10.144;2023-11-21T04:31:38;100582.28;;;15.44;93.69
75886;BME280;64561;44.018;10.144;2023-11-21T04:34:05;100584.84;;;15.46;93.54
75886;BME280;64561;44.018;10.144;2023-11-21T04:36:33;100584.88;;;15.44;93.52
75886;BME280;64561;44.018;10.144;2023-11-21T04:39:01;100583.13;;;15.54;91.92
75886;BME280;64561;44.018;10.144;2023-11-21T04:41:28;100586.59;;;15.56;91.92
75886;BME280;64561;44.018;10.144;2023-11-21T04:43:55;100590.00;;;15.58;91.75
75886;BME280;64561;44.018;10.144;2023-11-21T04:46:22;100576.25;;;15.61;92.06
75886;BME280;64561;44.018;10.144;2023-11-21T04:48:49;100565.09;;;15.62;92.07
75886;BME280;64561;44.018;10.144;2023-11-21T04:51:16;100553.03;;;15.62;91.50
75886;BME280;64561;44.018;10.144;2023-11-21T04:53:43;100546.16;;;15.63;91.45
75886;BME280;64561;44.018;10.144;2023-11-21T04:56:10;100537.56;;;15.64;90.89
75886;BME280;64561;44.018;10.144;2023-11-21T04:58:38;100545.31;;;15.65;90.65
75886;BME280;64561;44.018;10.144;2023-11-21T05:01:09;100562.53;;;15.68;90.60
75886;BME280;64561;44.018;10.144;2023-11-21T05:03:36;100566.81;;;15.69;90.96
75886;BME280;64561;44.018;10.144;2023-11-21T05:06:06;100559.94;;;15.71;91.70
75886;BME280;64561;44.018;10.144;2023-11-21T05:08:33;100563.34;;;15.65;92.45
75886;BME280;64561;44.018;10.144;2023-11-21T05:11:00;100571.09;;;15.62;94.70
75886;BME280;64561;44.018;10.144;2023-11-21T05:13:27;100574.53;;;15.60;95.21
75886;BME280;64561;44.018;10.144;2023-11-21T05:15:55;100567.66;;;15.59;94.98
75886;BME280;64561;44.018;10.144;2023-11-21T05:18:25;100566.81;;;15.53;94.94
75886;BME280;64561;44.018;10.144;2023-11-21T05:20:56;100561.66;;;15.50;95.09
75886;BME280;64561;44.018;10.144;2023-11-21T05:23:24;100567.69;;;15.49;95.19
75886;BME280;64561;44.018;10.144;2023-11-21T05:25:52;100559.94;;;15.45;95.48
75886;BME280;64561;44.018;10.144;2023-11-21T05:28:19;100562.50;;;15.45;95.10
75886;BME280;64561;44.018;10.144;2023-11-21T05:30:46;100561.66;;;15.44;94.36
75886;BME280;64561;44.018;10.144;2023-11-21T05:33:14;100556.50;;;15.44;94.28
75886;BME280;64561;44.018;10.144;2023-11-21T05:35:41;100567.69;;;15.46;94.47
75886;BME280;64561;44.018;10.144;2023-11-21T05:38:08;100572.81;;;15.57;95.13
75886;BME280;64561;44.018;10.144;2023-11-21T05:40:35;100571.09;;;15.61;95.34
75886;BME280;64561;44.018;10.144;2023-11-21T05:43:04;100566.78;;;15.66;94.61
75886;BME280;64561;44.018;10.144;2023-11-21T05:45:32;100567.66;;;15.62;95.06
75886;BME280;64561;44.018;10.144;2023-11-21T05:47:59;100565.94;;;15.61;95.39
75886;BME280;64561;44.018;10.144;2023-11-21T05:50:26;100562.53;;;15.68;95.96
75886;BME280;64561;44.018;10.144;2023-11-21T05:52:53;100574.56;;;15.76;95.33
75886;BME280;64561;44.018;10.144;2023-11-21T05:55:22;100572.81;;;15.72;95.53
75886;BME280;64561;44.018;10.144;2023-11-21T05:57:52;100563.38;;;15.70;95.69
75886;BME280;64561;44.018;10.144;2023-11-21T06:00:20;100559.09;;;15.70;95.36
75886;BME280;64561;44.018;10.144;2023-11-21T06:02:55;100578.84;;;15.71;95.21
75886;BME280;64561;44.018;10.144;2023-11-21T06:05:25;100573.66;;;15.67;95.37
75886;BME280;64561;44.018;10.144;2023-11-21T06:07:54;100571.06;;;15.67;95.04
75886;BME280;64561;44.018;10.144;2023-11-21T06:10:22;100573.66;;;15.64;95.25
75886;BME280;64561;44.018;10.144;2023-11-21T06:12:52;100575.41;;;15.62;95.60
75886;BME280;64561;44.018;10.144;2023-11-21T06:15:20;100582.25;;;15.61;95.70
75886;BME280;64561;44.018;10.144;2023-11-21T06:17:51;100579.69;;;15.60;95.05
75886;BME280;64561;44.018;10.144;2023-11-21T06:20:21;100578.81;;;15.58;95.53
75886;BME280;64561;44.018;10.144;2023-11-21T06:22:50;100574.53;;;15.53;95.29
75886;BME280;64561;44.018;10.144;2023-11-21T06:25:19;100582.25;;;15.52;95.47
75886;BME280;64561;44.018;10.144;2023-11-21T06:27:48;100581.44;;;15.47;95.97
75886;BME280;64561;44.018;10.144;2023-11-21T06:30:15;100584.84;;;15.46;95.81
75886;BME280;64561;44.018;10.144;2023-11-21T06:32:43;100579.72;;;15.44;96.02
75886;BME280;64561;44.018;10.144;2023-11-21T06:35:14;100583.13;;;15.43;96.00
75886;BME280;64561;44.018;10.144;2023-11-21T06:37:44;100572.81;;;15.42;95.79
75886;BME280;64561;44.018;10.144;2023-11-21T06:40:18;100582.28;;;15.40;95.99
75886;BME280;64561;44.018;10.144;2023-11-21T06:42:46;100575.38;;;15.37;95.50
75886;BME280;64561;44.018;10.144;2023-11-21T06:45:15;100565.97;;;15.35;95.37
75886;BME280;64561;44.018;10.144;2023-11-21T06:47:42;100559.06;;;15.33;94.82
75886;BME280;64561;44.018;10.144;2023-11-21T06:50:10;100565.94;;;15.33;94.46
75886;BME280;64561;44.018;10.144;2023-11-21T06:52:38;100562.50;;;15.31;94.29
75886;BME280;64561;44.018;10.144;2023-11-21T06:55:06;100564.22;;;15.30;93.92
75886;BME280;64561;44.018;10.144;2023-11-21T06:57:36;100564.25;;;15.29;93.79
75886;BME280;64561;44.018;10.144;2023-11-21T07:00:05;100564.25;;;15.29;93.77
75886;BME280;64561;44.018;10.144;2023-11-21T07:02:36;100559.91;;;15.25;93.41
75886;BME280;64561;44.018;10.144;2023-11-21T07:05:04;100559.91;;;15.31;93.31
75886;BME280;64561;44.018;10.144;2023-11-21T07:07:31;100560.78;;;15.30;93.34
75886;BME280;64561;44.018;10.144;2023-11-21T07:09:58;100563.38;;;15.31;93.05
75886;BME280;64561;44.018;10.144;2023-11-21T07:12:31;100564.22;;;15.30;93.03
75886;BME280;64561;44.018;10.144;2023-11-21T07:14:59;100559.94;;;15.29;93.35
75886;BME280;64561;44.018;10.144;2023-11-21T07:17:26;100565.06;;;15.31;92.86
75886;BME280;64561;44.018;10.144;2023-11-21T07:19:53;100565.97;;;15.31;93.32
75886;BME280;64561;44.018;10.144;2023-11-21T07:22:22;100559.94;;;15.29;92.82
75886;BME280;64561;44.018;10.144;2023-11-21T07:24:49;100566.81;;;15.32;92.61
75886;BME280;64561;44.018;10.144;2023-11-21T07:27:18;100570.22;;;15.31;92.38
75886;BME280;64561;44.018;10.144;2023-11-21T07:29:45;100566.81;;;15.30;91.71
75886;BME280;64561;44.018;10.144;2023-11-21T07:32:12;100567.66;;;15.31;91.72
75886;BME280;64561;44.018;10.144;2023-11-21T07:34:41;100570.25;;;15.32;91.31
75886;BME280;64561;44.018;10.144;2023-11-21T07:37:08;100565.06;;;15.28;90.85
75886;BME280;64561;44.018;10.144;2023-11-21T07:39:36;100571.13;;;15.31;90.14
75886;BME280;64561;44.018;10.144;2023-11-21T07:42:03;100577.97;;;15.34;88.60
75886;BME280;64561;44.018;10.144;2023-11-21T07:44:31;100580.53;;;15.37;87.16
75886;BME280;64561;44.018;10.144;2023-11-21T07:46:58;100575.38;;;15.37;86.85
75886;BME280;64561;44.018;10.144;2023-11-21T07:49:25;100571.97;;;15.35;87.06
75886;BME280;64561;44.018;10.144;2023-11-21T07:51:54;100571.09;;;15.36;86.70
75886;BME280;64561;44.018;10.144;2023-11-21T07:54:21;100575.38;;;15.40;86.35
75886;BME280;64561;44.018;10.144;2023-11-21T07:56:48;100567.66;;;15.43;85.80
75886;BME280;64561;44.018;10.144;2023-11-21T07:59:15;100571.09;;;15.45;85.48
75886;BME280;64561;44.018;10.144;2023-11-21T08:01:44;100571.94;;;15.49;85.01
75886;BME280;64561;44.018;10.144;2023-11-21T08:04:12;100574.53;;;15.55;84.65
75886;BME280;64561;44.018;10.144;2023-11-21T08:06:40;100571.94;;;15.61;84.22
75886;BME280;64561;44.018;10.144;2023-11-21T08:09:09;100579.69;;;15.66;83.80
75886;BME280;64561;44.018;10.144;2023-11-21T08:11:36;100580.56;;;15.69;82.87
75886;BME280;64561;44.018;10.144;2023-11-21T08:14:06;100586.56;;;15.82;81.17
75886;BME280;64561;44.018;10.144;2023-11-21T08:16:35;100584.88;;;15.83;80.76
75886;BME280;64561;44.018;10.144;2023-11-21T08:19:03;100590.00;;;15.84;81.12
75886;BME280;64561;44.018;10.144;2023-11-21T08:21:30;100583.13;;;15.82;81.48
75886;BME280;64561;44.018;10.144;2023-11-21T08:23:58;100594.31;;;15.82;81.58
75886;BME280;64561;44.018;10.144;2023-11-21T08:26:25;100589.16;;;15.81;82.00
75886;BME280;64561;44.018;10.144;2023-11-21T08:28:52;100600.34;;;15.83;82.87
75886;BME280;64561;44.018;10.144;2023-11-21T08:31:25;100596.03;;;15.82;83.78
75886;BME280;64561;44.018;10.144;2023-11-21T08:33:52;100594.31;;;15.87;83.24
75886;BME280;64561;44.018;10.144;2023-11-21T08:36:22;100586.59;;;15.84;83.41
75886;BME280;64561;44.018;10.144;2023-11-21T08:38:52;100590.88;;;15.86;84.08
75886;BME280;64561;44.018;10.144;2023-11-21T08:41:20;100592.59;;;15.87;83.85
75886;BME280;64561;44.018;10.144;2023-11-21T08:43:49;100580.56;;;15.83;83.64
75886;BME280;64561;44.018;10.144;2023-11-21T08:46:18;100581.41;;;15.93;84.63
75886;BME280;64561;44.018;10.144;2023-11-21T08:48:46;100578.81;;;15.94;85.18
75886;BME280;64561;44.018;10.144;2023-11-21T08:51:13;100573.66;;;15.91;85.69
75886;BME280;64561;44.018;10.144;2023-11-21T08:53:41;100564.22;;;15.89;85.82
75886;BME280;64561;44.018;10.144;2023-11-21T08:56:15;100577.97;;;15.92;84.76
75886;BME280;64561;44.018;10.144;2023-11-21T08:58:42;100564.22;;;15.87;84.05
75886;BME280;64561;44.018;10.144;2023-11-21T09:01:11;100565.06;;;15.82;84.40
75886;BME280;64561;44.018;10.144;2023-11-21T09:03:39;100558.19;;;15.84;85.36
75886;BME280;64561;44.018;10.144;2023-11-21T09:06:07;100552.19;;;15.83;86.30
75886;BME280;64561;44.018;10.144;2023-11-21T09:08:37;100549.59;;;15.82;86.82
75886;BME280;64561;44.018;10.144;2023-11-21T09:11:04;100549.59;;;15.83;86.89
75886;BME280;64561;44.018;10.144;2023-11-21T09:13:33;100542.72;;;15.82;86.84
75886;BME280;64561;44.018;10.144;2023-11-21T09:16:01;100534.97;;;15.82;86.32
75886;BME280;64561;44.018;10.144;2023-11-21T09:18:28;100534.97;;;15.90;85.54
75886;BME280;64561;44.018;10.144;2023-11-21T09:20:56;100540.09;;;15.96;84.93
75886;BME280;64561;44.018;10.144;2023-11-21T09:23:23;100538.38;;;15.98;84.31
75886;BME280;64561;44.018;10.144;2023-11-21T09:25:50;100534.06;;;15.97;83.95
75886;BME280;64561;44.018;10.144;2023-11-21T09:28:18;100532.34;;;15.96;83.31
75886;BME280;64561;44.018;10.144;2023-11-21T09:30:46;100523.72;;;16.00;83.00
75886;BME280;64561;44.018;10.144;2023-11-21T09:33:13;100528.03;;;15.99;83.11
75886;BME280;64561;44.018;10.144;2023-11-21T09:35:40;100522.03;;;15.99;83.81
75886;BME280;64561;44.018;10.144;2023-11-21T09:38:07;100519.44;;;16.04;83.64
75886;BME280;64561;44.018;10.144;2023-11-21T09:40:38;100520.28;;;16.03;83.55
75886;BME280;64561;44.018;10.144;2023-11-21T09:43:08;100522.00;;;16.08;84.10
75886;BME280;64561;44.018;10.144;2023-11-21T09:45:47;100518.50;;;16.23;82.68
75886;BME280;64561;44.018;10.144;2023-11-21T09:48:15;100513.34;;;16.25;83.25
75886;BME280;64561;44.018;10.144;2023-11-21T09:50:43;100497.81;;;16.29;82.64
75886;BME280;64561;44.018;10.144;2023-11-21T09:53:13;100488.31;;;16.37;82.28
75886;BME280;64561;44.018;10.144;2023-11-21T09:55:44;100483.13;;;16.39;82.41
75886;BME280;64561;44.018;10.144;2023-11-21T09:58:13;100483.94;;;16.42;81.60
75886;BME280;64561;44.018;10.144;2023-11-21T10:00:42;100475.38;;;16.40;81.55
75886;BME280;64561;44.018;10.144;2023-11-21T10:03:10;100487.44;;;16.38;80.97
75886;BME280;64561;44.018;10.144;2023-11-21T10:05:39;100484.84;;;16.40;79.58
75886;BME280;64561;44.018;10.144;2023-11-21T10:08:08;100490.88;;;16.40;80.16
75886;BME280;64561;44.018;10.144;2023-11-21T10:10:46;100491.69;;;16.45;82.01
75886;BME280;64561;44.018;10.144;2023-11-21T10:13:17;100489.09;;;16.45;82.55
75886;BME280;64561;44.018;10.144;2023-11-21T10:15:50;100483.97;;;16.44;82.91
75886;BME280;64561;44.018;10.144;2023-11-21T10:18:18;100484.75;;;16.55;81.69
75886;BME280;64561;44.018;10.144;2023-11-21T10:20:46;100482.97;;;16.65;80.53
75886;BME280;64561;44.018;10.144;2023-11-21T10:23:21;100479.50;;;16.69;81.75
75886;BME280;64561;44.018;10.144;2023-11-21T10:25:54;100481.13;;;16.84;81.59
75886;BME280;64561;44.018;10.144;2023-11-21T10:28:25;100482.78;;;16.92;81.94
75886;BME280;64561;44.018;10.144;2023-11-21T10:30:53;100477.59;;;17.00;82.10
75886;BME280;64561;44.018;10.144;2023-11-21T10:33:27;100471.53;;;17.03;80.56
75886;BME280;64561;44.018;10.144;2023-11-21T10:35:56;100462.00;;;17.08;81.32
75886;BME280;64561;44.018;10.144;2023-11-21T10:38:23;100466.28;;;17.10;80.79
75886;BME280;64561;44.018;10.144;2023-11-21T10:40:52;100467.97;;;17.13;80.10
75886;BME280;64561;44.018;10.144;2023-11-21T10:43:19;100462.84;;;17.10;80.24
75886;BME280;64561;44.018;10.144;2023-11-21T10:45:47;100461.97;;;17.12;79.05
75886;BME280;64561;44.018;10.144;2023-11-21T10:48:15;100462.69;;;17.25;78.01
75886;BME280;64561;44.018;10.144;2023-11-21T10:50:47;100457.56;;;17.22;78.51
75886;BME280;64561;44.018;10.144;2023-11-21T10:53:14;100448.03;;;17.26;78.01
75886;BME280;64561;44.018;10.144;2023-11-21T10:55:42;100448.81;;;17.34;77.51
75886;BME280;64561;44.018;10.144;2023-11-21T10:58:13;100435.88;;;17.37;78.04
75886;BME280;64561;44.018;10.144;2023-11-21T11:00:43;100441.81;;;17.44;79.54
75886;BME280;64561;44.018;10.144;2023-11-21T11:03:12;100437.50;;;17.44;77.99
75886;BME280;64561;44.018;10.144;2023-11-21T11:05:44;100428.75;;;17.56;80.26
75886;BME280;64561;44.018;10.144;2023-11-21T11:08:21;100429.41;;;17.73;80.49
75886;BME280;64561;44.018;10.144;2023-11-21T11:10:55;100437.91;;;17.88;81.22
75886;BME280;64561;44.018;10.144;2023-11-21T11:13:23;100439.56;;;17.92;79.17
75886;BME280;64561;44.018;10.144;2023-11-21T11:15:58;100433.47;;;17.96;78.86
75886;BME280;64561;44.018;10.144;2023-11-21T11:18:29;100435.19;;;17.97;79.10
75886;BME280;64561;44.018;10.144;2023-11-21T11:21:30;100424.03;;;17.93;78.48
75886;BME280;64561;44.018;10.144;2023-11-21T11:26:51;100412.00;;;17.89;78.26
75886;BME280;64561;44.018;10.144;2023-11-21T11:29:43;100414.56;;;17.89;77.84
75886;BME280;64561;44.018;10.144;2023-11-21T11:32:24;100413.69;;;17.92;78.25
75886;BME280;64561;44.018;10.144;2023-11-21T11:35:04;100401.63;;;17.91;79.26
75886;BME280;64561;44.018;10.144;2023-11-21T11:37:34;100403.34;;;17.92;78.96
75886;BME280;64561;44.018;10.144;2023-11-21T11:40:06;100393.91;;;17.86;78.79
75886;BME280;64561;44.018;10.144;2023-11-21T11:42:33;100389.63;;;17.83;80.13
75886;BME280;64561;44.018;10.144;2023-11-21T11:45:00;100385.41;;;17.72;79.74
75886;BME280;64561;44.018;10.144;2023-11-21T11:47:31;100380.41;;;17.59;77.21
75886;BME280;64561;44.018;10.144;2023-11-21T11:50:09;100373.69;;;17.45;77.43
75886;BME280;64561;44.018;10.144;2023-11-21T11:52:50;100375.53;;;17.36;78.30
75886;BME280;64561;44.018;10.144;2023-11-21T11:55:21;100364.28;;;17.39;79.47
75886;BME280;64561;44.018;10.144;2023-11-21T12:00:21;100354.16;;;17.18;78.22
75886;BME280;64561;44.018;10.144;2023-11-21T12:02:54;100351.66;;;17.10;78.79
75886;BME280;64561;44.018;10.144;2023-11-21T12:05:21;100356.84;;;17.08;79.12
75886;BME280;64561;44.018;10.144;2023-11-21T12:07:50;100354.31;;;17.04;78.81
75886;BME280;64561;44.018;10.144;2023-11-21T12:10:26;100351.78;;;17.01;78.90
75886;BME280;64561;44.018;10.144;2023-11-21T12:12:55;100344.88;;;17.00;79.69
75886;BME280;64561;44.018;10.144;2023-11-21T12:15:23;100339.69;;;17.01;79.71
75886;BME280;64561;44.018;10.144;2023-11-21T12:17:51;100340.44;;;17.11;79.56
75886;BME280;64561;44.018;10.144;2023-11-21T12:20:20;100327.53;;;17.12;79.06
75886;BME280;64561;44.018;10.144;2023-11-21T12:22:49;100323.97;;;17.20;78.02
75886;BME280;64561;44.018;10.144;2023-11-21T12:25:22;100321.34;;;17.23;79.18
75886;BME280;64561;44.018;10.144;2023-11-21T12:27:51;100315.25;;;17.30;79.25
75886;BME280;64561;44.018;10.144;2023-11-21T12:30:23;100311.81;;;17.26;79.50
75886;BME280;64561;44.018;10.144;2023-11-21T12:32:52;100310.97;;;17.27;77.97
75886;BME280;64561;44.018;10.144;2023-11-21T12:35:21;100316.81;;;17.43;79.12
75886;BME280;64561;44.018;10.144;2023-11-21T12:37:51;100320.03;;;17.60;78.81
75886;BME280;64561;44.018;10.144;2023-11-21T12:40:19;100320.75;;;17.70;78.38
75886;BME280;64561;44.018;10.144;2023-11-21T12:42:53;100314.63;;;17.79;77.20
75886;BME280;64561;44.018;10.144;2023-11-21T12:47:55;100328.44;;;17.76;77.72
75886;BME280;64561;44.018;10.144;2023-11-21T12:50:24;100331.13;;;17.70;77.43
75886;BME280;64561;44.018;10.144;2023-11-21T12:55:30;100334.69;;;17.62;75.41